Independent, Nebraska
Current Conditions -  °F | °C
As of 6:53 PM on Friday 31 Oct 2014 (Local Time) from KODX Reporting Station
Clear Clear  
Wind Chill:   Ceiling: Unl
Heat Index:   Visibility: 10mi
Dew Point: -10°   Wind: 7mph
Humidity: 39%   Direction: 150°SSE
Pressure: 30.38"   Gusts: NA
Location:  41.4844°N, 98.8112°W
Report Text: KODX 312353Z AUTO 15006KT 10SM CLR 03/M10 A3038 RMK AO2 SLP310 T00281100 10061 20022 56015
Loading
Personal Weather Stations






























Interactive Weather Map
Tropical Storm Tracking
New forecast layout! Learn more

10-Day Weather Forecast

Advertisements
Track Severe Weather on mobile